createdAt,value
2018-12-12T00:01:16.523Z,59.35
2018-12-12T00:03:47.847Z,56.60
2018-12-12T00:06:19.219Z,57.85
2018-12-12T00:08:48.609Z,63.50
2018-12-12T00:11:18.008Z,55.77
2018-12-12T00:13:47.311Z,56.10
2018-12-12T00:16:16.646Z,63.07
2018-12-12T00:18:45.975Z,62.27
2018-12-12T00:21:15.315Z,54.18
2018-12-12T00:23:44.931Z,53.17
2018-12-12T00:26:14.530Z,59.77
2018-12-12T00:28:43.929Z,54.60
2018-12-12T00:31:13.296Z,56.65
2018-12-12T00:33:42.651Z,53.27
2018-12-12T00:36:12.085Z,53.53
2018-12-12T00:38:41.564Z,51.10
2018-12-12T00:41:10.907Z,50.50
2018-12-12T00:43:40.249Z,52.08
2018-12-12T00:46:09.638Z,50.80
2018-12-12T00:48:39.036Z,49.18
2018-12-12T00:51:08.501Z,56.10
2018-12-12T00:53:37.962Z,50.30
2018-12-12T00:56:07.303Z,51.50
2018-12-12T00:58:36.667Z,50.00
2018-12-12T01:01:06.018Z,51.87
2018-12-12T01:03:35.356Z,48.83
2018-12-12T01:06:04.684Z,55.52
2018-12-12T01:08:33.980Z,47.70
2018-12-12T01:11:08.495Z,50.70
2018-12-12T01:13:37.817Z,49.57
2018-12-12T01:16:07.235Z,49.67
2018-12-12T01:18:36.601Z,50.80
2018-12-12T01:21:06.016Z,47.13
2018-12-12T01:23:35.609Z,50.80
2018-12-12T01:26:05.010Z,48.47
2018-12-12T01:28:34.285Z,45.40
2018-12-12T01:31:04.728Z,45.28
2018-12-12T01:33:34.072Z,44.60
2018-12-12T01:36:03.521Z,48.23
2018-12-12T01:38:32.861Z,44.47
2018-12-12T01:41:02.186Z,44.00
2018-12-12T01:43:31.760Z,45.67
2018-12-12T01:46:01.059Z,43.03
2018-12-12T01:48:30.463Z,47.83
2018-12-12T01:50:59.840Z,44.27
2018-12-12T01:53:29.175Z,40.07
2018-12-12T01:55:58.598Z,41.60
2018-12-12T01:58:27.917Z,47.73
2018-12-12T02:00:57.246Z,40.93
2018-12-12T02:03:26.638Z,41.25
2018-12-12T02:05:56.132Z,43.73
2018-12-12T02:08:25.697Z,42.90
2018-12-12T02:10:55.285Z,41.77
2018-12-12T02:13:42.202Z,37.80
2018-12-12T02:16:11.438Z,40.23
2018-12-12T02:18:43.439Z,39.80
2018-12-12T02:21:12.775Z,40.63
2018-12-12T02:23:42.275Z,38.58
2018-12-12T02:26:37.139Z,37.83
2018-12-12T02:29:06.504Z,37.93
2018-12-12T02:31:35.887Z,38.33
2018-12-12T02:34:05.257Z,39.67
2018-12-12T02:36:34.710Z,39.17
2018-12-12T02:39:04.885Z,36.07
2018-12-12T02:41:44.144Z,38.90
2018-12-12T02:44:13.488Z,36.57
2018-12-12T02:46:42.804Z,36.17
2018-12-12T02:49:12.197Z,38.75
2018-12-12T02:51:41.477Z,37.20
2018-12-12T02:54:10.828Z,39.95
2018-12-12T02:56:40.195Z,36.07
2018-12-12T02:59:09.575Z,36.80
2018-12-12T03:01:38.854Z,37.00
2018-12-12T03:04:08.410Z,38.80
2018-12-12T03:06:37.837Z,36.38
2018-12-12T03:09:07.529Z,36.20
2018-12-12T03:11:38.928Z,36.00
2018-12-12T03:14:08.613Z,33.30
2018-12-12T03:16:37.983Z,35.63
2018-12-12T03:19:07.479Z,34.18
2018-12-12T03:21:36.853Z,33.35
2018-12-12T03:24:06.193Z,32.43
2018-12-12T03:26:35.563Z,31.57
2018-12-12T03:31:41.768Z,32.73
2018-12-12T03:34:11.083Z,33.63
2018-12-12T03:36:40.610Z,32.77
2018-12-12T03:39:10.219Z,33.55
2018-12-12T03:41:39.856Z,31.73
2018-12-12T03:44:09.267Z,32.47
2018-12-12T03:46:38.664Z,29.03
2018-12-12T03:49:14.598Z,33.83
2018-12-12T03:51:43.902Z,29.97
2018-12-12T03:54:15.338Z,31.60
2018-12-12T03:56:44.920Z,29.03
2018-12-12T03:59:17.655Z,30.75
2018-12-12T04:01:46.998Z,29.63
2018-12-12T04:04:16.326Z,32.47
2018-12-12T04:06:45.683Z,28.57
2018-12-12T04:09:15.117Z,33.20
2018-12-12T04:11:44.464Z,31.02
2018-12-12T04:14:13.939Z,29.23
2018-12-12T04:16:43.593Z,27.87
2018-12-12T04:19:13.208Z,30.53
2018-12-12T04:21:44.660Z,29.47
2018-12-12T04:24:13.980Z,27.82
2018-12-12T04:26:43.244Z,27.15
2018-12-12T04:29:12.623Z,27.17
2018-12-12T04:31:42.087Z,27.25
2018-12-12T04:34:11.480Z,27.50
2018-12-12T04:36:40.865Z,30.57
2018-12-12T04:39:10.164Z,27.50
2018-12-12T04:41:39.665Z,31.73
2018-12-12T04:44:09.071Z,29.57
2018-12-12T04:46:38.461Z,25.20
2018-12-12T04:49:07.844Z,27.82
2018-12-12T04:51:37.204Z,27.97
2018-12-12T04:54:06.544Z,28.43
2018-12-12T04:56:35.924Z,27.73
2018-12-12T04:59:05.549Z,27.23
2018-12-12T05:01:35.155Z,29.77
2018-12-12T05:04:04.611Z,22.90
2018-12-12T05:06:44.364Z,31.10
2018-12-12T05:09:13.763Z,32.23
2018-12-12T05:17:21.827Z,35.97
2018-12-12T05:19:51.502Z,36.43
2018-12-12T05:22:20.797Z,33.63
2018-12-12T05:24:50.063Z,37.90
2018-12-12T05:27:19.665Z,38.57
2018-12-12T05:29:49.342Z,32.57
2018-12-12T05:32:18.722Z,28.87
2018-12-12T05:34:48.058Z,35.50
2018-12-12T05:37:17.849Z,33.50
2018-12-12T05:39:47.338Z,37.00
2018-12-12T05:42:24.209Z,36.50
2018-12-12T05:44:53.549Z,35.30
2018-12-12T05:47:22.864Z,40.50
2018-12-12T05:52:51.868Z,34.20
2018-12-12T05:55:21.523Z,36.77
2018-12-12T05:57:50.840Z,33.43
2018-12-12T06:00:20.456Z,30.27
2018-12-12T06:02:49.774Z,36.93
2018-12-12T06:05:19.224Z,33.60
2018-12-12T06:07:48.618Z,30.23
2018-12-12T06:10:17.928Z,35.27
2018-12-12T06:12:47.403Z,34.20
2018-12-12T06:15:16.672Z,32.70
2018-12-12T06:17:46.331Z,32.00
2018-12-12T06:20:15.970Z,30.00
2018-12-12T06:22:45.712Z,31.63
2018-12-12T06:25:15.164Z,32.40
2018-12-12T06:27:44.533Z,35.40
2018-12-12T06:30:13.770Z,28.13
2018-12-12T06:32:43.426Z,32.10
2018-12-12T06:35:12.821Z,33.17
2018-12-12T06:37:52.434Z,30.40
2018-12-12T06:43:14.920Z,34.87
2018-12-12T06:48:24.303Z,39.77
2018-12-12T06:51:05.922Z,23.90
2018-12-12T06:53:35.614Z,25.63
2018-12-12T06:56:04.887Z,23.07
2018-12-12T06:58:34.400Z,23.30
2018-12-12T07:01:03.943Z,24.90
2018-12-12T07:03:33.324Z,28.47
2018-12-12T07:11:28.820Z,30.07
2018-12-12T07:13:58.157Z,28.97
2018-12-12T07:16:39.026Z,27.90
2018-12-12T07:21:52.999Z,34.87
2018-12-12T07:24:22.612Z,27.97
2018-12-12T07:26:53.293Z,31.53
2018-12-12T07:32:01.883Z,30.77
2018-12-12T07:34:32.003Z,39.80
2018-12-12T07:40:04.741Z,41.60
2018-12-12T07:42:34.284Z,45.43
2018-12-12T07:45:20.547Z,37.30
2018-12-12T07:47:52.036Z,37.38
2018-12-12T07:50:27.230Z,47.03
2018-12-12T07:52:56.407Z,41.48
2018-12-12T07:55:38.798Z,34.92
2018-12-12T07:58:09.304Z,50.60
2018-12-12T08:00:38.714Z,47.33
2018-12-12T08:03:08.241Z,46.73
2018-12-12T08:08:43.718Z,41.93
2018-12-12T08:11:13.140Z,42.53
2018-12-12T08:13:43.586Z,46.13
2018-12-12T08:16:20.808Z,40.88
2018-12-12T08:18:50.631Z,39.13
2018-12-12T08:21:27.922Z,38.75
2018-12-12T08:23:57.267Z,47.33
2018-12-12T08:29:12.487Z,44.20
2018-12-12T08:31:42.206Z,35.88
2018-12-12T08:34:12.787Z,37.03
2018-12-12T08:36:42.226Z,35.93
2018-12-12T08:39:11.594Z,33.13
2018-12-12T08:41:54.670Z,33.25
2018-12-12T08:44:24.039Z,29.67
2018-12-12T08:46:53.481Z,28.23
2018-12-12T08:49:23.317Z,34.20
2018-12-12T08:51:54.643Z,31.82
2018-12-12T08:54:24.402Z,29.20
2018-12-12T08:56:54.483Z,30.43
2018-12-12T08:59:24.242Z,31.17
2018-12-12T09:01:53.880Z,29.13
2018-12-12T09:04:23.291Z,32.40
2018-12-12T09:06:52.859Z,25.90
2018-12-12T09:09:23.202Z,27.10
2018-12-12T09:11:52.671Z,22.62
2018-12-12T09:14:22.352Z,21.35
2018-12-12T09:16:56.941Z,28.55
2018-12-12T09:19:30.208Z,25.65
2018-12-12T09:27:58.404Z,25.60
2018-12-12T09:30:29.917Z,31.07
2018-12-12T09:36:32.084Z,45.78
2018-12-12T09:39:07.545Z,36.48
2018-12-12T09:44:19.482Z,32.80
2018-12-12T09:46:57.118Z,32.23
2018-12-12T09:49:34.548Z,30.85
2018-12-12T09:52:05.705Z,29.82
2018-12-12T09:57:26.116Z,43.23
2018-12-12T10:00:05.713Z,40.25
2018-12-12T10:02:35.522Z,52.73
2018-12-12T10:07:43.579Z,34.85
2018-12-12T10:10:13.536Z,39.35
2018-12-12T10:12:42.862Z,37.55
2018-12-12T10:15:13.429Z,48.15
2018-12-12T10:17:43.278Z,51.33
2018-12-12T10:20:19.536Z,35.83
2018-12-12T10:25:35.415Z,38.78
2018-12-12T10:28:06.489Z,47.17
2018-12-12T10:30:47.125Z,33.20
2018-12-12T10:33:18.419Z,32.33
2018-12-12T10:35:48.002Z,34.13
2018-12-12T10:38:17.384Z,42.03
2018-12-12T10:40:46.660Z,38.87
2018-12-12T10:43:16.397Z,29.93
2018-12-12T10:48:43.379Z,34.70
2018-12-12T10:51:13.072Z,55.33
2018-12-12T10:53:42.635Z,43.73
2018-12-12T10:58:53.480Z,48.47
2018-12-12T11:01:30.207Z,66.07
2018-12-12T11:04:00.905Z,67.83
2018-12-12T11:06:30.981Z,56.13
2018-12-12T11:09:04.615Z,58.87
2018-12-12T11:11:36.557Z,63.48
2018-12-12T11:14:06.976Z,50.47
2018-12-12T11:16:39.737Z,49.63
2018-12-12T11:19:09.604Z,68.13
2018-12-12T11:21:39.271Z,71.53
2018-12-12T11:27:00.602Z,48.83
2018-12-12T11:29:48.594Z,46.53
2018-12-12T11:32:26.189Z,59.10
2018-12-12T11:34:55.710Z,55.17
2018-12-12T11:37:26.267Z,57.23
2018-12-12T11:39:55.719Z,49.90
2018-12-12T11:42:26.811Z,39.13
2018-12-12T11:44:58.023Z,43.00
2018-12-12T11:47:28.370Z,42.83
2018-12-12T11:49:58.358Z,40.87
2018-12-12T11:53:15.448Z,37.70
2018-12-12T11:55:45.116Z,37.67
2018-12-12T11:58:22.174Z,34.90
2018-12-12T12:00:51.810Z,34.53
2018-12-12T12:03:23.651Z,31.20
2018-12-12T12:05:54.170Z,48.13
2018-12-12T12:08:24.114Z,55.07
2018-12-12T12:10:54.661Z,39.23
2018-12-12T12:13:29.749Z,42.78
2018-12-12T12:16:00.531Z,38.10
2018-12-12T12:18:31.063Z,54.00
2018-12-12T12:21:01.309Z,55.53
2018-12-12T12:23:41.330Z,47.27
2018-12-12T12:26:12.298Z,46.97
2018-12-12T12:28:42.400Z,36.87
2018-12-12T12:31:30.728Z,41.92
2018-12-12T12:34:13.756Z,26.47
2018-12-12T12:36:44.112Z,27.83
2018-12-12T12:39:13.697Z,27.13
2018-12-12T12:41:43.224Z,24.43
2018-12-12T12:44:12.711Z,28.03
2018-12-12T12:46:43.533Z,25.30
2018-12-12T12:49:13.680Z,34.43
2018-12-12T12:51:43.570Z,32.78
2018-12-12T12:54:13.008Z,26.73
2018-12-12T12:56:42.590Z,24.27
2018-12-12T13:02:08.671Z,33.50
2018-12-12T13:07:41.791Z,40.30
2018-12-12T13:10:13.659Z,35.37
2018-12-12T13:12:48.974Z,35.60
2018-12-12T13:15:18.591Z,41.77
2018-12-12T13:17:48.022Z,39.05
2018-12-12T13:20:17.835Z,37.08
2018-12-12T13:22:48.313Z,34.98
2018-12-12T13:25:21.001Z,39.27
2018-12-12T13:28:00.445Z,42.60
2018-12-12T13:30:30.776Z,41.53
2018-12-12T13:33:00.073Z,42.23
2018-12-12T13:35:30.640Z,23.27
2018-12-12T13:38:00.732Z,33.15
2018-12-12T13:40:35.544Z,37.30
2018-12-12T13:43:06.487Z,34.40
2018-12-12T13:45:36.813Z,26.62
2018-12-12T13:48:06.948Z,23.95
2018-12-12T13:50:37.653Z,27.90
2018-12-12T13:53:31.351Z,25.43
2018-12-12T13:56:01.965Z,24.50
2018-12-12T13:58:32.035Z,20.45
2018-12-12T14:01:02.915Z,17.80
2018-12-12T14:03:34.163Z,31.65
2018-12-12T14:06:04.796Z,26.33
2018-12-12T14:08:34.441Z,25.35
2018-12-12T14:11:04.540Z,30.00
2018-12-12T14:13:34.144Z,31.23
2018-12-12T14:16:03.575Z,25.30
2018-12-12T14:18:32.998Z,29.23
2018-12-12T14:21:02.340Z,32.95
2018-12-12T14:23:31.790Z,29.75
2018-12-12T14:26:02.060Z,24.43
2018-12-12T14:28:31.445Z,27.95
2018-12-12T14:31:00.890Z,21.42
2018-12-12T14:33:30.181Z,27.40
2018-12-12T14:36:01.147Z,21.77
2018-12-12T14:38:30.769Z,27.02
2018-12-12T14:41:00.921Z,30.00
2018-12-12T14:43:30.273Z,24.98
2018-12-12T14:46:01.578Z,27.42
2018-12-12T14:48:30.994Z,30.45
2018-12-12T14:51:00.448Z,27.90
2018-12-12T14:53:31.419Z,27.73
2018-12-12T14:56:00.845Z,26.93
2018-12-12T14:58:31.025Z,20.05
2018-12-12T15:01:00.928Z,19.82
2018-12-12T15:03:34.376Z,19.35
2018-12-12T15:06:03.877Z,27.42
2018-12-12T15:08:33.749Z,26.23
2018-12-12T15:11:03.480Z,18.65
2018-12-12T15:13:33.509Z,23.87
2018-12-12T15:16:04.176Z,24.05
2018-12-12T15:18:33.593Z,24.40
2018-12-12T15:21:03.008Z,25.55
2018-12-12T15:23:32.532Z,24.32
2018-12-12T15:26:01.847Z,22.27
2018-12-12T15:28:31.486Z,24.35
2018-12-12T15:31:01.307Z,22.15
2018-12-12T15:33:30.773Z,18.60
2018-12-12T15:36:06.732Z,18.25
2018-12-12T15:38:36.153Z,18.45
2018-12-12T15:41:05.537Z,26.02
2018-12-12T15:43:36.660Z,21.07
2018-12-12T15:46:06.796Z,17.55
2018-12-12T15:48:36.802Z,24.35
2018-12-12T15:51:06.321Z,24.85
2018-12-12T15:53:35.828Z,24.65
2018-12-12T15:56:05.367Z,21.73
2018-12-12T15:58:35.152Z,21.68
2018-12-12T16:01:04.552Z,26.60
2018-12-12T16:03:34.156Z,24.30
2018-12-12T16:06:03.559Z,18.05
2018-12-12T16:08:32.886Z,20.45
2018-12-12T16:11:08.061Z,21.02
2018-12-12T16:13:33.928Z,19.32
2018-12-12T16:16:03.296Z,26.05
2018-12-12T16:18:32.726Z,18.35
2018-12-12T16:21:02.107Z,20.52
2018-12-12T16:23:31.557Z,24.15
2018-12-12T16:26:00.913Z,18.02
2018-12-12T16:28:31.235Z,19.57
2018-12-12T16:31:00.438Z,23.60
2018-12-12T16:33:29.837Z,21.70
2018-12-12T16:35:59.112Z,19.57
2018-12-12T16:38:28.343Z,19.75
2018-12-12T16:40:57.640Z,16.35
2018-12-12T16:43:26.839Z,16.55
2018-12-12T16:45:58.112Z,19.40
2018-12-12T16:48:27.415Z,19.42
2018-12-12T16:50:56.716Z,22.02
2018-12-12T16:53:26.048Z,21.37
2018-12-12T16:55:55.295Z,16.27
2018-12-12T16:58:25.326Z,17.05
2018-12-12T17:00:54.613Z,16.67
2018-12-12T17:03:23.932Z,19.05
2018-12-12T17:05:53.444Z,23.60
2018-12-12T17:08:22.687Z,15.18
2018-12-12T17:10:51.988Z,16.00
2018-12-12T17:13:21.268Z,17.67
2018-12-12T17:15:50.531Z,18.50
2018-12-12T17:18:19.731Z,14.87
2018-12-12T17:20:49.142Z,16.57
2018-12-12T17:23:19.478Z,17.37
2018-12-12T17:25:48.883Z,16.50
2018-12-12T17:28:18.156Z,15.55
2018-12-12T17:30:47.497Z,16.62
2018-12-12T17:33:16.766Z,16.50
2018-12-12T17:35:46.080Z,16.00
2018-12-12T17:38:15.349Z,15.30
2018-12-12T17:40:44.642Z,13.62
2018-12-12T17:43:13.887Z,14.30
2018-12-12T17:45:43.148Z,13.62
2018-12-12T17:48:12.531Z,14.78
2018-12-12T17:50:41.874Z,12.53
2018-12-12T17:53:11.220Z,12.28
2018-12-12T17:55:40.443Z,15.98
2018-12-12T17:58:09.915Z,13.78
2018-12-12T18:00:39.292Z,15.50
2018-12-12T18:03:10.532Z,14.18
2018-12-12T18:05:51.860Z,15.75
2018-12-12T18:08:22.185Z,13.40
2018-12-12T18:10:51.589Z,11.40
2018-12-12T18:13:21.767Z,14.05
2018-12-12T18:15:53.042Z,12.90
2018-12-12T18:18:24.370Z,15.15
2018-12-12T18:20:53.649Z,12.15
2018-12-12T18:23:25.068Z,13.72
2018-12-12T18:25:56.426Z,11.97
2018-12-12T18:28:25.816Z,14.78
2018-12-12T18:30:55.056Z,13.00
2018-12-12T18:33:26.277Z,11.78
2018-12-12T18:36:01.188Z,12.13
2018-12-12T18:38:30.483Z,11.93
2018-12-12T18:40:59.856Z,11.50
2018-12-12T18:43:31.150Z,11.57
2018-12-12T18:46:00.506Z,13.32
2018-12-12T18:48:29.836Z,11.03
2018-12-12T18:51:01.132Z,12.57
2018-12-12T18:53:32.444Z,10.13
2018-12-12T18:56:03.815Z,11.60
2018-12-12T18:58:33.242Z,11.00
2018-12-12T19:01:02.545Z,10.77
2018-12-12T19:03:31.982Z,10.20
2018-12-12T19:06:01.299Z,11.33
2018-12-12T19:08:30.786Z,11.83
2018-12-12T19:11:00.292Z,13.40
2018-12-12T19:13:29.567Z,11.80
2018-12-12T19:15:58.878Z,19.93
2018-12-12T19:18:28.336Z,20.93
2018-12-12T19:21:00.251Z,24.60
2018-12-12T19:23:29.278Z,23.73
2018-12-12T19:25:58.591Z,16.42
2018-12-12T19:28:27.835Z,14.38
2018-12-12T19:30:57.116Z,13.43
2018-12-12T19:33:26.404Z,20.70
2018-12-12T19:35:55.757Z,21.90
2018-12-12T19:38:26.085Z,18.37
2018-12-12T19:40:55.379Z,15.60
2018-12-12T19:43:24.867Z,13.43
2018-12-12T19:45:54.203Z,24.20
2018-12-12T19:48:23.798Z,16.27
2018-12-12T19:50:53.124Z,14.33
2018-12-12T19:53:22.511Z,14.13
2018-12-12T19:55:51.864Z,17.30
2018-12-12T19:58:22.304Z,14.90
2018-12-12T20:00:51.586Z,13.45
2018-12-12T20:03:20.912Z,14.45
2018-12-12T20:05:50.322Z,15.88
2018-12-12T20:08:19.662Z,14.23
2018-12-12T20:10:48.921Z,13.73
2018-12-12T20:13:18.401Z,11.88
2018-12-12T20:15:47.931Z,15.40
2018-12-12T20:18:17.307Z,10.33
2018-12-12T20:20:46.592Z,17.27
2018-12-12T20:23:15.966Z,12.75
2018-12-12T20:25:45.248Z,12.87
2018-12-12T20:28:15.312Z,13.10
2018-12-12T20:30:44.637Z,13.95
2018-12-12T20:33:14.065Z,12.77
2018-12-12T20:35:47.934Z,13.87
2018-12-12T20:38:15.053Z,14.25
2018-12-12T20:40:45.095Z,13.80
2018-12-12T20:43:14.394Z,14.13
2018-12-12T20:45:43.696Z,11.10
2018-12-12T20:48:12.957Z,15.90
2018-12-12T20:50:42.330Z,12.82
2018-12-12T20:53:11.653Z,11.33
2018-12-12T20:55:40.854Z,12.35
2018-12-12T20:58:10.330Z,10.58
2018-12-12T21:00:40.786Z,9.40
2018-12-12T21:03:10.948Z,14.00
2018-12-12T21:05:40.237Z,14.15
2018-12-12T21:08:09.775Z,10.87
2018-12-12T21:10:40.102Z,11.03
2018-12-12T21:13:11.427Z,10.80
2018-12-12T21:15:44.930Z,11.22
2018-12-12T21:18:14.265Z,9.65
2018-12-12T21:20:43.852Z,11.10
2018-12-12T21:23:13.178Z,11.00
2018-12-12T21:25:42.881Z,12.33
2018-12-12T21:28:12.267Z,10.55
2018-12-12T21:30:41.668Z,10.47
2018-12-12T21:33:10.984Z,12.25
2018-12-12T21:35:40.404Z,9.70
2018-12-12T21:38:09.970Z,8.85
2018-12-12T21:40:40.303Z,9.45
2018-12-12T21:43:09.674Z,9.93
2018-12-12T21:45:38.974Z,11.30
2018-12-12T21:48:08.261Z,9.93
2018-12-12T21:50:37.683Z,13.18
2018-12-12T21:53:06.983Z,11.33
2018-12-12T21:55:36.338Z,11.93
2018-12-12T21:58:05.662Z,9.73
2018-12-12T22:00:35.039Z,9.07
2018-12-12T22:03:04.327Z,9.97
2018-12-12T22:05:33.619Z,11.57
2018-12-12T22:08:02.940Z,9.97
2018-12-12T22:10:32.221Z,9.00
2018-12-12T22:13:01.683Z,8.95
2018-12-12T22:15:31.025Z,10.40
2018-12-12T22:18:00.331Z,9.03
2018-12-12T22:20:29.714Z,10.63
2018-12-12T22:22:59.107Z,8.63
2018-12-12T22:25:28.332Z,12.53
2018-12-12T22:27:57.540Z,11.65
2018-12-12T22:30:26.863Z,9.60
2018-12-12T22:32:56.171Z,9.98
2018-12-12T22:35:25.716Z,10.60
2018-12-12T22:37:55.047Z,9.30
2018-12-12T22:40:24.519Z,11.33
2018-12-12T22:42:54.059Z,11.07
2018-12-12T22:45:23.390Z,8.90
2018-12-12T22:47:53.278Z,9.63
2018-12-12T22:50:22.570Z,9.70
2018-12-12T22:52:51.876Z,8.50
2018-12-12T22:55:21.192Z,8.20
2018-12-12T22:57:50.535Z,9.20
2018-12-12T23:00:25.197Z,10.60
2018-12-12T23:02:56.465Z,8.57
2018-12-12T23:05:25.825Z,9.03
2018-12-12T23:07:55.303Z,8.70
2018-12-12T23:10:24.624Z,11.85
2018-12-12T23:12:53.956Z,8.77
2018-12-12T23:15:24.891Z,10.60
2018-12-12T23:17:55.217Z,9.23
2018-12-12T23:20:24.539Z,8.57
2018-12-12T23:22:53.823Z,7.83
2018-12-12T23:25:23.264Z,10.67
2018-12-12T23:27:52.659Z,7.50
2018-12-12T23:30:21.966Z,7.58
2018-12-12T23:32:51.232Z,8.03
2018-12-12T23:35:20.499Z,7.85
2018-12-12T23:37:49.898Z,9.13
2018-12-12T23:40:19.102Z,8.27
2018-12-12T23:42:48.468Z,7.60
2018-12-12T23:45:17.860Z,9.83
2018-12-12T23:47:47.343Z,6.78
2018-12-12T23:50:16.641Z,10.00
2018-12-12T23:52:45.973Z,8.30
2018-12-12T23:55:15.137Z,8.53
2018-12-12T23:57:44.472Z,9.00
